<?xml version="1.0" encoding="UTF-8" standalone="no" ?>
<gpx xmlns="http://www.topografix.com/GPX/1/1" xmlns:xsi="http://www.w3.org/2001/XMLSchema-instance" xsi:schemaLocation="http://www.topografix.com/GPX/1/1 http://www.topografix.com/GPX/1/1/gpx.xsd" version="1.1" creator="VisuGPX - https://www.visugpx.com">
  <metadata>
    <name>Rando Jambville 17 juin 2019 trace</name>
  </metadata>
  <trk>
    <name><![CDATA[Rando Jambville 17 juin 2019 trace]]></name>
    <trkseg>
      <trkpt lat="49.04807" lon="1.85096">
        <ele>123</ele>
        <time>2019-06-16T09:34:16+02:00</time>
      </trkpt>
      <trkpt lat="49.04837" lon="1.85177">
        <ele>124</ele>
        <time>2019-06-16T09:34:21+02:00</time>
      </trkpt>
      <trkpt lat="49.04814" lon="1.85188">
        <ele>120</ele>
        <time>2019-06-16T09:34:53+02:00</time>
      </trkpt>
      <trkpt lat="49.04791" lon="1.85186">
        <ele>120</ele>
        <time>2019-06-16T09:35:06+02:00</time>
      </trkpt>
      <trkpt lat="49.04768" lon="1.85191">
        <ele>121</ele>
        <time>2019-06-16T09:35:21+02:00</time>
      </trkpt>
      <trkpt lat="49.04745" lon="1.85195">
        <ele>119</ele>
        <time>2019-06-16T09:35:36+02:00</time>
      </trkpt>
      <trkpt lat="49.04721" lon="1.85199">
        <ele>121</ele>
        <time>2019-06-16T09:35:52+02:00</time>
      </trkpt>
      <trkpt lat="49.04699" lon="1.85205">
        <ele>120</ele>
        <time>2019-06-16T09:36:08+02:00</time>
      </trkpt>
      <trkpt lat="49.04677" lon="1.85203">
        <ele>120</ele>
        <time>2019-06-16T09:36:24+02:00</time>
      </trkpt>
      <trkpt lat="49.04655" lon="1.85194">
        <ele>121</ele>
        <time>2019-06-16T09:36:41+02:00</time>
      </trkpt>
      <trkpt lat="49.04649" lon="1.85227">
        <ele>123</ele>
        <time>2019-06-16T09:38:52+02:00</time>
      </trkpt>
      <trkpt lat="49.04641" lon="1.85193">
        <ele>126</ele>
        <time>2019-06-16T09:47:21+02:00</time>
      </trkpt>
      <trkpt lat="49.04633" lon="1.8516">
        <ele>126</ele>
        <time>2019-06-16T09:47:40+02:00</time>
      </trkpt>
      <trkpt lat="49.0464" lon="1.85127">
        <ele>128</ele>
        <time>2019-06-16T09:48:01+02:00</time>
      </trkpt>
      <trkpt lat="49.0466" lon="1.85109">
        <ele>129</ele>
        <time>2019-06-16T09:48:20+02:00</time>
      </trkpt>
      <trkpt lat="49.04678" lon="1.85087">
        <ele>130</ele>
        <time>2019-06-16T09:48:40+02:00</time>
      </trkpt>
      <trkpt lat="49.04692" lon="1.8506">
        <ele>131</ele>
        <time>2019-06-16T09:48:59+02:00</time>
      </trkpt>
      <trkpt lat="49.04703" lon="1.85028">
        <ele>131</ele>
        <time>2019-06-16T09:49:17+02:00</time>
      </trkpt>
      <trkpt lat="49.04714" lon="1.84996">
        <ele>132</ele>
        <time>2019-06-16T09:49:36+02:00</time>
      </trkpt>
      <trkpt lat="49.04718" lon="1.84962">
        <ele>133</ele>
        <time>2019-06-16T09:49:54+02:00</time>
      </trkpt>
      <trkpt lat="49.04707" lon="1.84932">
        <ele>135</ele>
        <time>2019-06-16T09:50:11+02:00</time>
      </trkpt>
      <trkpt lat="49.04702" lon="1.84898">
        <ele>136</ele>
        <time>2019-06-16T09:51:08+02:00</time>
      </trkpt>
      <trkpt lat="49.04702" lon="1.84863">
        <ele>139</ele>
        <time>2019-06-16T09:51:27+02:00</time>
      </trkpt>
      <trkpt lat="49.04715" lon="1.84834">
        <ele>140</ele>
        <time>2019-06-16T09:51:46+02:00</time>
      </trkpt>
      <trkpt lat="49.04731" lon="1.84809">
        <ele>144</ele>
        <time>2019-06-16T09:52:09+02:00</time>
      </trkpt>
      <trkpt lat="49.04746" lon="1.84781">
        <ele>144</ele>
        <time>2019-06-16T09:52:28+02:00</time>
      </trkpt>
      <trkpt lat="49.04756" lon="1.84749">
        <ele>145</ele>
        <time>2019-06-16T09:52:45+02:00</time>
      </trkpt>
      <trkpt lat="49.04775" lon="1.84731">
        <ele>146</ele>
        <time>2019-06-16T09:53:04+02:00</time>
      </trkpt>
      <trkpt lat="49.04798" lon="1.84731">
        <ele>147</ele>
        <time>2019-06-16T09:53:24+02:00</time>
      </trkpt>
      <trkpt lat="49.0482" lon="1.84735">
        <ele>149</ele>
        <time>2019-06-16T09:53:40+02:00</time>
      </trkpt>
      <trkpt lat="49.04843" lon="1.84725">
        <ele>150</ele>
        <time>2019-06-16T09:53:58+02:00</time>
      </trkpt>
      <trkpt lat="49.04866" lon="1.84723">
        <ele>150</ele>
        <time>2019-06-16T09:54:15+02:00</time>
      </trkpt>
      <trkpt lat="49.04889" lon="1.84727">
        <ele>153</ele>
        <time>2019-06-16T09:54:33+02:00</time>
      </trkpt>
      <trkpt lat="49.04911" lon="1.84716">
        <ele>155</ele>
        <time>2019-06-16T09:54:52+02:00</time>
      </trkpt>
      <trkpt lat="49.04913" lon="1.84681">
        <ele>155</ele>
        <time>2019-06-16T09:55:09+02:00</time>
      </trkpt>
      <trkpt lat="49.04925" lon="1.8465">
        <ele>156</ele>
        <time>2019-06-16T09:55:26+02:00</time>
      </trkpt>
      <trkpt lat="49.04925" lon="1.84616">
        <ele>158</ele>
        <time>2019-06-16T09:55:45+02:00</time>
      </trkpt>
      <trkpt lat="49.04924" lon="1.84581">
        <ele>159</ele>
        <time>2019-06-16T09:56:04+02:00</time>
      </trkpt>
      <trkpt lat="49.0492" lon="1.84545">
        <ele>162</ele>
        <time>2019-06-16T09:56:22+02:00</time>
      </trkpt>
      <trkpt lat="49.04921" lon="1.8451">
        <ele>165</ele>
        <time>2019-06-16T09:56:40+02:00</time>
      </trkpt>
      <trkpt lat="49.0492" lon="1.84475">
        <ele>167</ele>
        <time>2019-06-16T09:56:59+02:00</time>
      </trkpt>
      <trkpt lat="49.04921" lon="1.84441">
        <ele>167</ele>
        <time>2019-06-16T09:57:16+02:00</time>
      </trkpt>
      <trkpt lat="49.0492" lon="1.84405">
        <ele>169</ele>
        <time>2019-06-16T09:57:36+02:00</time>
      </trkpt>
      <trkpt lat="49.04922" lon="1.84371">
        <ele>172</ele>
        <time>2019-06-16T09:57:59+02:00</time>
      </trkpt>
      <trkpt lat="49.04945" lon="1.84378">
        <ele>174</ele>
        <time>2019-06-16T09:58:21+02:00</time>
      </trkpt>
      <trkpt lat="49.04968" lon="1.84385">
        <ele>177</ele>
        <time>2019-06-16T09:58:49+02:00</time>
      </trkpt>
      <trkpt lat="49.04991" lon="1.84396">
        <ele>181</ele>
        <time>2019-06-16T10:03:41+02:00</time>
      </trkpt>
      <trkpt lat="49.05014" lon="1.84401">
        <ele>183</ele>
        <time>2019-06-16T10:04:01+02:00</time>
      </trkpt>
      <trkpt lat="49.05037" lon="1.84391">
        <ele>184</ele>
        <time>2019-06-16T10:04:22+02:00</time>
      </trkpt>
      <trkpt lat="49.05059" lon="1.84383">
        <ele>184</ele>
        <time>2019-06-16T10:04:43+02:00</time>
      </trkpt>
      <trkpt lat="49.05082" lon="1.84375">
        <ele>186</ele>
        <time>2019-06-16T10:05:01+02:00</time>
      </trkpt>
      <trkpt lat="49.05104" lon="1.84368">
        <ele>186</ele>
        <time>2019-06-16T10:05:18+02:00</time>
      </trkpt>
      <trkpt lat="49.05126" lon="1.8436">
        <ele>187</ele>
        <time>2019-06-16T10:05:39+02:00</time>
      </trkpt>
      <trkpt lat="49.05149" lon="1.84353">
        <ele>185</ele>
        <time>2019-06-16T10:06:02+02:00</time>
      </trkpt>
      <trkpt lat="49.05169" lon="1.84337">
        <ele>184</ele>
        <time>2019-06-16T10:06:21+02:00</time>
      </trkpt>
      <trkpt lat="49.0519" lon="1.84322">
        <ele>183</ele>
        <time>2019-06-16T10:06:40+02:00</time>
      </trkpt>
      <trkpt lat="49.0521" lon="1.84305">
        <ele>184</ele>
        <time>2019-06-16T10:07:01+02:00</time>
      </trkpt>
      <trkpt lat="49.0523" lon="1.84287">
        <ele>185</ele>
        <time>2019-06-16T10:07:17+02:00</time>
      </trkpt>
      <trkpt lat="49.0525" lon="1.84268">
        <ele>186</ele>
        <time>2019-06-16T10:07:36+02:00</time>
      </trkpt>
      <trkpt lat="49.05272" lon="1.84256">
        <ele>185</ele>
        <time>2019-06-16T10:07:55+02:00</time>
      </trkpt>
      <trkpt lat="49.05295" lon="1.84256">
        <ele>185</ele>
        <time>2019-06-16T10:08:18+02:00</time>
      </trkpt>
      <trkpt lat="49.05317" lon="1.8425">
        <ele>183</ele>
        <time>2019-06-16T10:08:34+02:00</time>
      </trkpt>
      <trkpt lat="49.0534" lon="1.84243">
        <ele>184</ele>
        <time>2019-06-16T10:08:53+02:00</time>
      </trkpt>
      <trkpt lat="49.05363" lon="1.84246">
        <ele>185</ele>
        <time>2019-06-16T10:09:12+02:00</time>
      </trkpt>
      <trkpt lat="49.05386" lon="1.84253">
        <ele>185</ele>
        <time>2019-06-16T10:09:29+02:00</time>
      </trkpt>
      <trkpt lat="49.0541" lon="1.8425">
        <ele>183</ele>
        <time>2019-06-16T10:09:47+02:00</time>
      </trkpt>
      <trkpt lat="49.05433" lon="1.84252">
        <ele>184</ele>
        <time>2019-06-16T10:10:05+02:00</time>
      </trkpt>
      <trkpt lat="49.05456" lon="1.84258">
        <ele>186</ele>
        <time>2019-06-16T10:10:26+02:00</time>
      </trkpt>
      <trkpt lat="49.05479" lon="1.84261">
        <ele>185</ele>
        <time>2019-06-16T10:10:46+02:00</time>
      </trkpt>
      <trkpt lat="49.05501" lon="1.84266">
        <ele>185</ele>
        <time>2019-06-16T10:11:03+02:00</time>
      </trkpt>
      <trkpt lat="49.05524" lon="1.84272">
        <ele>188</ele>
        <time>2019-06-16T10:11:22+02:00</time>
      </trkpt>
      <trkpt lat="49.05547" lon="1.84276">
        <ele>189</ele>
        <time>2019-06-16T10:11:41+02:00</time>
      </trkpt>
      <trkpt lat="49.05565" lon="1.84298">
        <ele>189</ele>
        <time>2019-06-16T10:12:02+02:00</time>
      </trkpt>
      <trkpt lat="49.05582" lon="1.8432">
        <ele>191</ele>
        <time>2019-06-16T10:12:21+02:00</time>
      </trkpt>
      <trkpt lat="49.05601" lon="1.84339">
        <ele>190</ele>
        <time>2019-06-16T10:12:38+02:00</time>
      </trkpt>
      <trkpt lat="49.05622" lon="1.84355">
        <ele>191</ele>
        <time>2019-06-16T10:13:00+02:00</time>
      </trkpt>
      <trkpt lat="49.05644" lon="1.84367">
        <ele>191</ele>
        <time>2019-06-16T10:13:17+02:00</time>
      </trkpt>
      <trkpt lat="49.05667" lon="1.84373">
        <ele>191</ele>
        <time>2019-06-16T10:13:34+02:00</time>
      </trkpt>
      <trkpt lat="49.05687" lon="1.84388">
        <ele>192</ele>
        <time>2019-06-16T10:13:53+02:00</time>
      </trkpt>
      <trkpt lat="49.05708" lon="1.84403">
        <ele>194</ele>
        <time>2019-06-16T10:14:13+02:00</time>
      </trkpt>
      <trkpt lat="49.05729" lon="1.84416">
        <ele>194</ele>
        <time>2019-06-16T10:14:36+02:00</time>
      </trkpt>
      <trkpt lat="49.05749" lon="1.84432">
        <ele>194</ele>
        <time>2019-06-16T10:14:56+02:00</time>
      </trkpt>
      <trkpt lat="49.05771" lon="1.84447">
        <ele>197</ele>
        <time>2019-06-16T10:15:16+02:00</time>
      </trkpt>
      <trkpt lat="49.0579" lon="1.84467">
        <ele>197</ele>
        <time>2019-06-16T10:15:37+02:00</time>
      </trkpt>
      <trkpt lat="49.0581" lon="1.84486">
        <ele>196</ele>
        <time>2019-06-16T10:16:00+02:00</time>
      </trkpt>
      <trkpt lat="49.05827" lon="1.84509">
        <ele>197</ele>
        <time>2019-06-16T10:17:00+02:00</time>
      </trkpt>
      <trkpt lat="49.05842" lon="1.84536">
        <ele>197</ele>
        <time>2019-06-16T10:17:27+02:00</time>
      </trkpt>
      <trkpt lat="49.0586" lon="1.84558">
        <ele>192</ele>
        <time>2019-06-16T10:17:46+02:00</time>
      </trkpt>
      <trkpt lat="49.05877" lon="1.84582">
        <ele>189</ele>
        <time>2019-06-16T10:18:06+02:00</time>
      </trkpt>
      <trkpt lat="49.05896" lon="1.84603">
        <ele>188</ele>
        <time>2019-06-16T10:18:28+02:00</time>
      </trkpt>
      <trkpt lat="49.05913" lon="1.84627">
        <ele>186</ele>
        <time>2019-06-16T10:18:47+02:00</time>
      </trkpt>
      <trkpt lat="49.05933" lon="1.84645">
        <ele>182</ele>
        <time>2019-06-16T10:19:06+02:00</time>
      </trkpt>
      <trkpt lat="49.05952" lon="1.84667">
        <ele>182</ele>
        <time>2019-06-16T10:19:29+02:00</time>
      </trkpt>
      <trkpt lat="49.05974" lon="1.84666">
        <ele>182</ele>
        <time>2019-06-16T10:19:55+02:00</time>
      </trkpt>
      <trkpt lat="49.05997" lon="1.84672">
        <ele>181</ele>
        <time>2019-06-16T10:20:16+02:00</time>
      </trkpt>
      <trkpt lat="49.0602" lon="1.84675">
        <ele>180</ele>
        <time>2019-06-16T10:20:35+02:00</time>
      </trkpt>
      <trkpt lat="49.06042" lon="1.8467">
        <ele>178</ele>
        <time>2019-06-16T10:20:53+02:00</time>
      </trkpt>
      <trkpt lat="49.06065" lon="1.84669">
        <ele>178</ele>
        <time>2019-06-16T10:21:13+02:00</time>
      </trkpt>
      <trkpt lat="49.06088" lon="1.84671">
        <ele>175</ele>
        <time>2019-06-16T10:21:42+02:00</time>
      </trkpt>
      <trkpt lat="49.06108" lon="1.84655">
        <ele>175</ele>
        <time>2019-06-16T10:22:11+02:00</time>
      </trkpt>
      <trkpt lat="49.06127" lon="1.84635">
        <ele>174</ele>
        <time>2019-06-16T10:22:30+02:00</time>
      </trkpt>
      <trkpt lat="49.06143" lon="1.84609">
        <ele>172</ele>
        <time>2019-06-16T10:22:47+02:00</time>
      </trkpt>
      <trkpt lat="49.06158" lon="1.84581">
        <ele>170</ele>
        <time>2019-06-16T10:23:17+02:00</time>
      </trkpt>
      <trkpt lat="49.06168" lon="1.8455">
        <ele>173</ele>
        <time>2019-06-16T10:24:07+02:00</time>
      </trkpt>
      <trkpt lat="49.06188" lon="1.84532">
        <ele>171</ele>
        <time>2019-06-16T10:25:03+02:00</time>
      </trkpt>
      <trkpt lat="49.06198" lon="1.84502">
        <ele>171</ele>
        <time>2019-06-16T10:25:24+02:00</time>
      </trkpt>
      <trkpt lat="49.06207" lon="1.84469">
        <ele>168</ele>
        <time>2019-06-16T10:25:50+02:00</time>
      </trkpt>
      <trkpt lat="49.06213" lon="1.84434">
        <ele>170</ele>
        <time>2019-06-16T10:26:09+02:00</time>
      </trkpt>
      <trkpt lat="49.06215" lon="1.84398">
        <ele>170</ele>
        <time>2019-06-16T10:26:27+02:00</time>
      </trkpt>
      <trkpt lat="49.06216" lon="1.84363">
        <ele>170</ele>
        <time>2019-06-16T10:26:49+02:00</time>
      </trkpt>
      <trkpt lat="49.06225" lon="1.8433">
        <ele>171</ele>
        <time>2019-06-16T10:27:11+02:00</time>
      </trkpt>
      <trkpt lat="49.06235" lon="1.84298">
        <ele>170</ele>
        <time>2019-06-16T10:27:34+02:00</time>
      </trkpt>
      <trkpt lat="49.06244" lon="1.84266">
        <ele>168</ele>
        <time>2019-06-16T10:27:53+02:00</time>
      </trkpt>
      <trkpt lat="49.06256" lon="1.84235">
        <ele>165</ele>
        <time>2019-06-16T10:28:16+02:00</time>
      </trkpt>
      <trkpt lat="49.06265" lon="1.84203">
        <ele>165</ele>
        <time>2019-06-16T10:28:39+02:00</time>
      </trkpt>
      <trkpt lat="49.06273" lon="1.8417">
        <ele>164</ele>
        <time>2019-06-16T10:29:00+02:00</time>
      </trkpt>
      <trkpt lat="49.06284" lon="1.8414">
        <ele>162</ele>
        <time>2019-06-16T10:29:23+02:00</time>
      </trkpt>
      <trkpt lat="49.06291" lon="1.84107">
        <ele>161</ele>
        <time>2019-06-16T10:29:47+02:00</time>
      </trkpt>
      <trkpt lat="49.06289" lon="1.84072">
        <ele>158</ele>
        <time>2019-06-16T10:47:42+02:00</time>
      </trkpt>
      <trkpt lat="49.06294" lon="1.84037">
        <ele>160</ele>
        <time>2019-06-16T10:48:14+02:00</time>
      </trkpt>
      <trkpt lat="49.06297" lon="1.84003">
        <ele>157</ele>
        <time>2019-06-16T10:48:46+02:00</time>
      </trkpt>
      <trkpt lat="49.06306" lon="1.83971">
        <ele>155</ele>
        <time>2019-06-16T10:49:52+02:00</time>
      </trkpt>
      <trkpt lat="49.06313" lon="1.83938">
        <ele>152</ele>
        <time>2019-06-16T10:52:22+02:00</time>
      </trkpt>
      <trkpt lat="49.06319" lon="1.83904">
        <ele>146</ele>
        <time>2019-06-16T10:52:52+02:00</time>
      </trkpt>
      <trkpt lat="49.06318" lon="1.83869">
        <ele>142</ele>
        <time>2019-06-16T10:53:18+02:00</time>
      </trkpt>
      <trkpt lat="49.06323" lon="1.83836">
        <ele>139</ele>
        <time>2019-06-16T10:53:40+02:00</time>
      </trkpt>
      <trkpt lat="49.06345" lon="1.83824">
        <ele>140</ele>
        <time>2019-06-16T10:56:34+02:00</time>
      </trkpt>
      <trkpt lat="49.06368" lon="1.83821">
        <ele>144</ele>
        <time>2019-06-16T10:57:32+02:00</time>
      </trkpt>
      <trkpt lat="49.0639" lon="1.83812">
        <ele>148</ele>
        <time>2019-06-16T10:57:53+02:00</time>
      </trkpt>
      <trkpt lat="49.06413" lon="1.83811">
        <ele>149</ele>
        <time>2019-06-16T10:58:20+02:00</time>
      </trkpt>
      <trkpt lat="49.06436" lon="1.83807">
        <ele>149</ele>
        <time>2019-06-16T10:59:00+02:00</time>
      </trkpt>
      <trkpt lat="49.06458" lon="1.83815">
        <ele>149</ele>
        <time>2019-06-16T11:01:12+02:00</time>
      </trkpt>
      <trkpt lat="49.0647" lon="1.83845">
        <ele>151</ele>
        <time>2019-06-16T11:01:43+02:00</time>
      </trkpt>
      <trkpt lat="49.06483" lon="1.83873">
        <ele>151</ele>
        <time>2019-06-16T11:02:16+02:00</time>
      </trkpt>
      <trkpt lat="49.06484" lon="1.83908">
        <ele>147</ele>
        <time>2019-06-16T11:03:53+02:00</time>
      </trkpt>
      <trkpt lat="49.06471" lon="1.83936">
        <ele>145</ele>
        <time>2019-06-16T11:04:30+02:00</time>
      </trkpt>
      <trkpt lat="49.06472" lon="1.83971">
        <ele>145</ele>
        <time>2019-06-16T11:04:49+02:00</time>
      </trkpt>
      <trkpt lat="49.06468" lon="1.84006">
        <ele>146</ele>
        <time>2019-06-16T11:05:21+02:00</time>
      </trkpt>
      <trkpt lat="49.06466" lon="1.84041">
        <ele>146</ele>
        <time>2019-06-16T11:05:44+02:00</time>
      </trkpt>
      <trkpt lat="49.06459" lon="1.84073">
        <ele>145</ele>
        <time>2019-06-16T11:06:09+02:00</time>
      </trkpt>
      <trkpt lat="49.06449" lon="1.84105">
        <ele>147</ele>
        <time>2019-06-16T11:06:33+02:00</time>
      </trkpt>
      <trkpt lat="49.06443" lon="1.84137">
        <ele>151</ele>
        <time>2019-06-16T11:15:39+02:00</time>
      </trkpt>
      <trkpt lat="49.06429" lon="1.84165">
        <ele>154</ele>
        <time>2019-06-16T11:20:19+02:00</time>
      </trkpt>
      <trkpt lat="49.06422" lon="1.84199">
        <ele>156</ele>
        <time>2019-06-16T11:20:43+02:00</time>
      </trkpt>
      <trkpt lat="49.06414" lon="1.84232">
        <ele>156</ele>
        <time>2019-06-16T11:21:32+02:00</time>
      </trkpt>
      <trkpt lat="49.06406" lon="1.84265">
        <ele>158</ele>
        <time>2019-06-16T11:21:56+02:00</time>
      </trkpt>
      <trkpt lat="49.0642" lon="1.84293">
        <ele>159</ele>
        <time>2019-06-16T11:22:23+02:00</time>
      </trkpt>
      <trkpt lat="49.06441" lon="1.84308">
        <ele>162</ele>
        <time>2019-06-16T11:22:57+02:00</time>
      </trkpt>
      <trkpt lat="49.06465" lon="1.84312">
        <ele>162</ele>
        <time>2019-06-16T11:23:25+02:00</time>
      </trkpt>
      <trkpt lat="49.0649" lon="1.84312">
        <ele>164</ele>
        <time>2019-06-16T11:23:51+02:00</time>
      </trkpt>
      <trkpt lat="49.06513" lon="1.84319">
        <ele>165</ele>
        <time>2019-06-16T11:24:15+02:00</time>
      </trkpt>
      <trkpt lat="49.06535" lon="1.84313">
        <ele>165</ele>
        <time>2019-06-16T11:24:29+02:00</time>
      </trkpt>
      <trkpt lat="49.06553" lon="1.8429">
        <ele>164</ele>
        <time>2019-06-16T11:24:53+02:00</time>
      </trkpt>
      <trkpt lat="49.06576" lon="1.84283">
        <ele>164</ele>
        <time>2019-06-16T11:25:18+02:00</time>
      </trkpt>
      <trkpt lat="49.06599" lon="1.84275">
        <ele>163</ele>
        <time>2019-06-16T11:25:42+02:00</time>
      </trkpt>
      <trkpt lat="49.06623" lon="1.84276">
        <ele>163</ele>
        <time>2019-06-16T11:25:55+02:00</time>
      </trkpt>
      <trkpt lat="49.06646" lon="1.84263">
        <ele>160</ele>
        <time>2019-06-16T11:27:44+02:00</time>
      </trkpt>
      <trkpt lat="49.06669" lon="1.84255">
        <ele>162</ele>
        <time>2019-06-16T11:28:04+02:00</time>
      </trkpt>
      <trkpt lat="49.06693" lon="1.84255">
        <ele>160</ele>
        <time>2019-06-16T11:28:27+02:00</time>
      </trkpt>
      <trkpt lat="49.06711" lon="1.84234">
        <ele>160</ele>
        <time>2019-06-16T11:28:44+02:00</time>
      </trkpt>
      <trkpt lat="49.06734" lon="1.84227">
        <ele>160</ele>
        <time>2019-06-16T11:28:58+02:00</time>
      </trkpt>
      <trkpt lat="49.06756" lon="1.84219">
        <ele>161</ele>
        <time>2019-06-16T11:29:12+02:00</time>
      </trkpt>
      <trkpt lat="49.0678" lon="1.84227">
        <ele>161</ele>
        <time>2019-06-16T11:29:56+02:00</time>
      </trkpt>
      <trkpt lat="49.06803" lon="1.84224">
        <ele>163</ele>
        <time>2019-06-16T11:30:12+02:00</time>
      </trkpt>
      <trkpt lat="49.06826" lon="1.84222">
        <ele>165</ele>
        <time>2019-06-16T11:30:29+02:00</time>
      </trkpt>
      <trkpt lat="49.06846" lon="1.84205">
        <ele>166</ele>
        <time>2019-06-16T11:31:00+02:00</time>
      </trkpt>
      <trkpt lat="49.06868" lon="1.842">
        <ele>167</ele>
        <time>2019-06-16T11:31:15+02:00</time>
      </trkpt>
      <trkpt lat="49.06888" lon="1.84184">
        <ele>168</ele>
        <time>2019-06-16T11:31:45+02:00</time>
      </trkpt>
      <trkpt lat="49.06906" lon="1.8416">
        <ele>168</ele>
        <time>2019-06-16T11:31:59+02:00</time>
      </trkpt>
      <trkpt lat="49.06918" lon="1.84129">
        <ele>188</ele>
        <time>2019-06-16T11:34:05+02:00</time>
      </trkpt>
      <trkpt lat="49.06923" lon="1.84095">
        <ele>185</ele>
        <time>2019-06-16T11:34:33+02:00</time>
      </trkpt>
      <trkpt lat="49.06938" lon="1.84069">
        <ele>189</ele>
        <time>2019-06-16T11:34:57+02:00</time>
      </trkpt>
      <trkpt lat="49.06951" lon="1.8404">
        <ele>193</ele>
        <time>2019-06-16T11:35:22+02:00</time>
      </trkpt>
      <trkpt lat="49.06961" lon="1.84009">
        <ele>195</ele>
        <time>2019-06-16T11:35:52+02:00</time>
      </trkpt>
      <trkpt lat="49.06973" lon="1.83979">
        <ele>195</ele>
        <time>2019-06-16T11:36:12+02:00</time>
      </trkpt>
      <trkpt lat="49.06984" lon="1.83949">
        <ele>197</ele>
        <time>2019-06-16T11:36:38+02:00</time>
      </trkpt>
      <trkpt lat="49.06986" lon="1.83914">
        <ele>198</ele>
        <time>2019-06-16T11:37:03+02:00</time>
      </trkpt>
      <trkpt lat="49.0699" lon="1.83879">
        <ele>198</ele>
        <time>2019-06-16T11:41:01+02:00</time>
      </trkpt>
      <trkpt lat="49.07012" lon="1.83891">
        <ele>199</ele>
        <time>2019-06-16T11:44:11+02:00</time>
      </trkpt>
      <trkpt lat="49.07031" lon="1.83869">
        <ele>200</ele>
        <time>2019-06-16T11:44:33+02:00</time>
      </trkpt>
      <trkpt lat="49.07048" lon="1.83845">
        <ele>201</ele>
        <time>2019-06-16T11:44:50+02:00</time>
      </trkpt>
      <trkpt lat="49.07059" lon="1.83814">
        <ele>200</ele>
        <time>2019-06-16T11:45:20+02:00</time>
      </trkpt>
      <trkpt lat="49.07074" lon="1.83787">
        <ele>200</ele>
        <time>2019-06-16T11:45:37+02:00</time>
      </trkpt>
      <trkpt lat="49.07095" lon="1.8377">
        <ele>201</ele>
        <time>2019-06-16T11:45:54+02:00</time>
      </trkpt>
      <trkpt lat="49.07115" lon="1.83755">
        <ele>201</ele>
        <time>2019-06-16T11:46:17+02:00</time>
      </trkpt>
      <trkpt lat="49.07138" lon="1.83746">
        <ele>199</ele>
        <time>2019-06-16T11:47:46+02:00</time>
      </trkpt>
      <trkpt lat="49.07149" lon="1.83714">
        <ele>198</ele>
        <time>2019-06-16T11:48:35+02:00</time>
      </trkpt>
      <trkpt lat="49.07167" lon="1.83694">
        <ele>196</ele>
        <time>2019-06-16T11:50:38+02:00</time>
      </trkpt>
      <trkpt lat="49.07183" lon="1.83669">
        <ele>201</ele>
        <time>2019-06-16T11:51:28+02:00</time>
      </trkpt>
      <trkpt lat="49.07198" lon="1.83644">
        <ele>203</ele>
        <time>2019-06-16T11:51:49+02:00</time>
      </trkpt>
      <trkpt lat="49.07211" lon="1.83613">
        <ele>202</ele>
        <time>2019-06-16T11:52:10+02:00</time>
      </trkpt>
      <trkpt lat="49.07229" lon="1.83591">
        <ele>202</ele>
        <time>2019-06-16T11:52:26+02:00</time>
      </trkpt>
      <trkpt lat="49.07246" lon="1.83568">
        <ele>203</ele>
        <time>2019-06-16T11:52:46+02:00</time>
      </trkpt>
      <trkpt lat="49.07268" lon="1.83555">
        <ele>204</ele>
        <time>2019-06-16T11:53:05+02:00</time>
      </trkpt>
      <trkpt lat="49.07285" lon="1.8353">
        <ele>207</ele>
        <time>2019-06-16T11:53:33+02:00</time>
      </trkpt>
      <trkpt lat="49.07306" lon="1.83517">
        <ele>208</ele>
        <time>2019-06-16T11:54:02+02:00</time>
      </trkpt>
      <trkpt lat="49.07323" lon="1.83494">
        <ele>206</ele>
        <time>2019-06-16T11:54:22+02:00</time>
      </trkpt>
      <trkpt lat="49.07334" lon="1.83464">
        <ele>208</ele>
        <time>2019-06-16T11:55:00+02:00</time>
      </trkpt>
      <trkpt lat="49.07342" lon="1.83432">
        <ele>200</ele>
        <time>2019-06-16T11:58:06+02:00</time>
      </trkpt>
      <trkpt lat="49.07352" lon="1.83401">
        <ele>201</ele>
        <time>2019-06-16T11:58:25+02:00</time>
      </trkpt>
      <trkpt lat="49.0737" lon="1.83378">
        <ele>200</ele>
        <time>2019-06-16T11:58:47+02:00</time>
      </trkpt>
      <trkpt lat="49.07378" lon="1.83344">
        <ele>201</ele>
        <time>2019-06-16T11:59:16+02:00</time>
      </trkpt>
      <trkpt lat="49.07387" lon="1.83313">
        <ele>204</ele>
        <time>2019-06-16T11:59:38+02:00</time>
      </trkpt>
      <trkpt lat="49.07395" lon="1.8328">
        <ele>203</ele>
        <time>2019-06-16T12:00:13+02:00</time>
      </trkpt>
      <trkpt lat="49.07408" lon="1.83251">
        <ele>203</ele>
        <time>2019-06-16T12:00:37+02:00</time>
      </trkpt>
      <trkpt lat="49.07423" lon="1.83225">
        <ele>202</ele>
        <time>2019-06-16T12:00:58+02:00</time>
      </trkpt>
      <trkpt lat="49.07438" lon="1.83197">
        <ele>203</ele>
        <time>2019-06-16T12:01:18+02:00</time>
      </trkpt>
      <trkpt lat="49.07455" lon="1.83172">
        <ele>206</ele>
        <time>2019-06-16T12:01:36+02:00</time>
      </trkpt>
      <trkpt lat="49.07474" lon="1.83153">
        <ele>208</ele>
        <time>2019-06-16T12:01:55+02:00</time>
      </trkpt>
      <trkpt lat="49.07495" lon="1.83137">
        <ele>209</ele>
        <time>2019-06-16T12:02:23+02:00</time>
      </trkpt>
      <trkpt lat="49.07516" lon="1.83124">
        <ele>210</ele>
        <time>2019-06-16T12:02:40+02:00</time>
      </trkpt>
      <trkpt lat="49.07529" lon="1.83094">
        <ele>209</ele>
        <time>2019-06-16T12:02:59+02:00</time>
      </trkpt>
      <trkpt lat="49.07534" lon="1.8306">
        <ele>206</ele>
        <time>2019-06-16T12:03:19+02:00</time>
      </trkpt>
      <trkpt lat="49.07542" lon="1.83026">
        <ele>206</ele>
        <time>2019-06-16T12:03:37+02:00</time>
      </trkpt>
      <trkpt lat="49.07556" lon="1.82998">
        <ele>204</ele>
        <time>2019-06-16T12:04:03+02:00</time>
      </trkpt>
      <trkpt lat="49.07576" lon="1.8298">
        <ele>204</ele>
        <time>2019-06-16T12:04:23+02:00</time>
      </trkpt>
      <trkpt lat="49.0759" lon="1.82953">
        <ele>203</ele>
        <time>2019-06-16T12:04:41+02:00</time>
      </trkpt>
      <trkpt lat="49.0761" lon="1.82932">
        <ele>201</ele>
        <time>2019-06-16T12:05:18+02:00</time>
      </trkpt>
      <trkpt lat="49.07622" lon="1.82902">
        <ele>197</ele>
        <time>2019-06-16T12:05:40+02:00</time>
      </trkpt>
      <trkpt lat="49.07639" lon="1.82878">
        <ele>196</ele>
        <time>2019-06-16T12:05:57+02:00</time>
      </trkpt>
      <trkpt lat="49.07637" lon="1.82843">
        <ele>193</ele>
        <time>2019-06-16T12:06:18+02:00</time>
      </trkpt>
      <trkpt lat="49.07633" lon="1.82809">
        <ele>179</ele>
        <time>2019-06-16T12:07:58+02:00</time>
      </trkpt>
      <trkpt lat="49.07638" lon="1.82774">
        <ele>178</ele>
        <time>2019-06-16T12:08:19+02:00</time>
      </trkpt>
      <trkpt lat="49.07643" lon="1.8274">
        <ele>176</ele>
        <time>2019-06-16T12:09:15+02:00</time>
      </trkpt>
      <trkpt lat="49.07642" lon="1.82704">
        <ele>173</ele>
        <time>2019-06-16T12:09:47+02:00</time>
      </trkpt>
      <trkpt lat="49.0763" lon="1.82675">
        <ele>174</ele>
        <time>2019-06-16T12:10:04+02:00</time>
      </trkpt>
      <trkpt lat="49.07636" lon="1.82641">
        <ele>172</ele>
        <time>2019-06-16T12:10:24+02:00</time>
      </trkpt>
      <trkpt lat="49.07641" lon="1.82608">
        <ele>170</ele>
        <time>2019-06-16T12:10:40+02:00</time>
      </trkpt>
      <trkpt lat="49.07639" lon="1.82573">
        <ele>169</ele>
        <time>2019-06-16T12:11:04+02:00</time>
      </trkpt>
      <trkpt lat="49.07636" lon="1.82538">
        <ele>164</ele>
        <time>2019-06-16T12:11:31+02:00</time>
      </trkpt>
      <trkpt lat="49.07636" lon="1.82504">
        <ele>164</ele>
        <time>2019-06-16T12:11:51+02:00</time>
      </trkpt>
      <trkpt lat="49.07636" lon="1.82469">
        <ele>163</ele>
        <time>2019-06-16T12:12:09+02:00</time>
      </trkpt>
      <trkpt lat="49.07636" lon="1.82434">
        <ele>162</ele>
        <time>2019-06-16T12:12:29+02:00</time>
      </trkpt>
      <trkpt lat="49.07636" lon="1.82399">
        <ele>163</ele>
        <time>2019-06-16T12:12:47+02:00</time>
      </trkpt>
      <trkpt lat="49.07637" lon="1.82364">
        <ele>164</ele>
        <time>2019-06-16T12:13:05+02:00</time>
      </trkpt>
      <trkpt lat="49.07642" lon="1.8233">
        <ele>164</ele>
        <time>2019-06-16T12:13:23+02:00</time>
      </trkpt>
      <trkpt lat="49.07627" lon="1.82303">
        <ele>163</ele>
        <time>2019-06-16T12:13:47+02:00</time>
      </trkpt>
      <trkpt lat="49.07608" lon="1.82283">
        <ele>164</ele>
        <time>2019-06-16T12:14:05+02:00</time>
      </trkpt>
      <trkpt lat="49.07589" lon="1.82264">
        <ele>164</ele>
        <time>2019-06-16T12:14:22+02:00</time>
      </trkpt>
      <trkpt lat="49.07571" lon="1.82241">
        <ele>165</ele>
        <time>2019-06-16T12:14:41+02:00</time>
      </trkpt>
      <trkpt lat="49.0755" lon="1.82227">
        <ele>164</ele>
        <time>2019-06-16T12:14:57+02:00</time>
      </trkpt>
      <trkpt lat="49.07528" lon="1.82212">
        <ele>162</ele>
        <time>2019-06-16T12:15:14+02:00</time>
      </trkpt>
      <trkpt lat="49.07514" lon="1.82185">
        <ele>160</ele>
        <time>2019-06-16T12:15:34+02:00</time>
      </trkpt>
      <trkpt lat="49.07495" lon="1.82166">
        <ele>157</ele>
        <time>2019-06-16T12:16:48+02:00</time>
      </trkpt>
      <trkpt lat="49.07476" lon="1.82145">
        <ele>157</ele>
        <time>2019-06-16T12:17:04+02:00</time>
      </trkpt>
      <trkpt lat="49.07458" lon="1.82125">
        <ele>154</ele>
        <time>2019-06-16T12:18:58+02:00</time>
      </trkpt>
      <trkpt lat="49.0744" lon="1.82101">
        <ele>153</ele>
        <time>2019-06-16T12:19:17+02:00</time>
      </trkpt>
      <trkpt lat="49.07424" lon="1.82075">
        <ele>152</ele>
        <time>2019-06-16T12:19:36+02:00</time>
      </trkpt>
      <trkpt lat="49.07406" lon="1.82054">
        <ele>149</ele>
        <time>2019-06-16T12:19:56+02:00</time>
      </trkpt>
      <trkpt lat="49.07388" lon="1.82033">
        <ele>148</ele>
        <time>2019-06-16T12:20:13+02:00</time>
      </trkpt>
      <trkpt lat="49.07372" lon="1.82008">
        <ele>144</ele>
        <time>2019-06-16T12:20:40+02:00</time>
      </trkpt>
      <trkpt lat="49.07354" lon="1.81987">
        <ele>143</ele>
        <time>2019-06-16T12:20:58+02:00</time>
      </trkpt>
      <trkpt lat="49.07335" lon="1.81967">
        <ele>141</ele>
        <time>2019-06-16T12:21:15+02:00</time>
      </trkpt>
      <trkpt lat="49.07317" lon="1.81944">
        <ele>140</ele>
        <time>2019-06-16T12:21:36+02:00</time>
      </trkpt>
      <trkpt lat="49.07299" lon="1.81921">
        <ele>138</ele>
        <time>2019-06-16T12:21:56+02:00</time>
      </trkpt>
      <trkpt lat="49.07281" lon="1.81898">
        <ele>137</ele>
        <time>2019-06-16T12:22:20+02:00</time>
      </trkpt>
      <trkpt lat="49.07263" lon="1.81879">
        <ele>137</ele>
        <time>2019-06-16T12:22:36+02:00</time>
      </trkpt>
      <trkpt lat="49.0724" lon="1.81877">
        <ele>137</ele>
        <time>2019-06-16T12:22:53+02:00</time>
      </trkpt>
      <trkpt lat="49.07217" lon="1.81867">
        <ele>137</ele>
        <time>2019-06-16T12:23:12+02:00</time>
      </trkpt>
      <trkpt lat="49.07196" lon="1.81852">
        <ele>138</ele>
        <time>2019-06-16T12:23:35+02:00</time>
      </trkpt>
      <trkpt lat="49.07176" lon="1.81836">
        <ele>137</ele>
        <time>2019-06-16T12:23:55+02:00</time>
      </trkpt>
      <trkpt lat="49.07156" lon="1.81818">
        <ele>138</ele>
        <time>2019-06-16T12:24:13+02:00</time>
      </trkpt>
      <trkpt lat="49.07136" lon="1.818">
        <ele>138</ele>
        <time>2019-06-16T12:24:33+02:00</time>
      </trkpt>
      <trkpt lat="49.07116" lon="1.81784">
        <ele>139</ele>
        <time>2019-06-16T12:24:52+02:00</time>
      </trkpt>
      <trkpt lat="49.07094" lon="1.81772">
        <ele>140</ele>
        <time>2019-06-16T12:25:13+02:00</time>
      </trkpt>
      <trkpt lat="49.07072" lon="1.81764">
        <ele>140</ele>
        <time>2019-06-16T12:25:29+02:00</time>
      </trkpt>
      <trkpt lat="49.07049" lon="1.81762">
        <ele>142</ele>
        <time>2019-06-16T12:25:47+02:00</time>
      </trkpt>
      <trkpt lat="49.07027" lon="1.81753">
        <ele>147</ele>
        <time>2019-06-16T12:27:51+02:00</time>
      </trkpt>
      <trkpt lat="49.07005" lon="1.81749">
        <ele>150</ele>
        <time>2019-06-16T12:28:10+02:00</time>
      </trkpt>
      <trkpt lat="49.06981" lon="1.81747">
        <ele>153</ele>
        <time>2019-06-16T12:28:25+02:00</time>
      </trkpt>
      <trkpt lat="49.06959" lon="1.81744">
        <ele>154</ele>
        <time>2019-06-16T12:28:43+02:00</time>
      </trkpt>
      <trkpt lat="49.06937" lon="1.81736">
        <ele>156</ele>
        <time>2019-06-16T12:29:05+02:00</time>
      </trkpt>
      <trkpt lat="49.06915" lon="1.81727">
        <ele>157</ele>
        <time>2019-06-16T12:29:29+02:00</time>
      </trkpt>
      <trkpt lat="49.06892" lon="1.81725">
        <ele>157</ele>
        <time>2019-06-16T12:29:47+02:00</time>
      </trkpt>
      <trkpt lat="49.06869" lon="1.81723">
        <ele>161</ele>
        <time>2019-06-16T12:30:07+02:00</time>
      </trkpt>
      <trkpt lat="49.06846" lon="1.81728">
        <ele>162</ele>
        <time>2019-06-16T12:30:25+02:00</time>
      </trkpt>
      <trkpt lat="49.06824" lon="1.8174">
        <ele>166</ele>
        <time>2019-06-16T12:31:03+02:00</time>
      </trkpt>
      <trkpt lat="49.06801" lon="1.81738">
        <ele>166</ele>
        <time>2019-06-16T12:31:27+02:00</time>
      </trkpt>
      <trkpt lat="49.0678" lon="1.81724">
        <ele>171</ele>
        <time>2019-06-16T12:31:53+02:00</time>
      </trkpt>
      <trkpt lat="49.06768" lon="1.81694">
        <ele>171</ele>
        <time>2019-06-16T12:32:13+02:00</time>
      </trkpt>
      <trkpt lat="49.06746" lon="1.81679">
        <ele>171</ele>
        <time>2019-06-16T12:32:30+02:00</time>
      </trkpt>
      <trkpt lat="49.06725" lon="1.81668">
        <ele>173</ele>
        <time>2019-06-16T12:32:47+02:00</time>
      </trkpt>
      <trkpt lat="49.06703" lon="1.81656">
        <ele>174</ele>
        <time>2019-06-16T12:33:07+02:00</time>
      </trkpt>
      <trkpt lat="49.06687" lon="1.8163">
        <ele>177</ele>
        <time>2019-06-16T12:33:27+02:00</time>
      </trkpt>
      <trkpt lat="49.06669" lon="1.81608">
        <ele>177</ele>
        <time>2019-06-16T12:33:46+02:00</time>
      </trkpt>
      <trkpt lat="49.06651" lon="1.81585">
        <ele>178</ele>
        <time>2019-06-16T12:34:05+02:00</time>
      </trkpt>
      <trkpt lat="49.06634" lon="1.81561">
        <ele>180</ele>
        <time>2019-06-16T12:34:21+02:00</time>
      </trkpt>
      <trkpt lat="49.06613" lon="1.81544">
        <ele>179</ele>
        <time>2019-06-16T12:34:39+02:00</time>
      </trkpt>
      <trkpt lat="49.06592" lon="1.81525">
        <ele>182</ele>
        <time>2019-06-16T12:35:01+02:00</time>
      </trkpt>
      <trkpt lat="49.06572" lon="1.81508">
        <ele>182</ele>
        <time>2019-06-16T12:35:20+02:00</time>
      </trkpt>
      <trkpt lat="49.06552" lon="1.81491">
        <ele>181</ele>
        <time>2019-06-16T12:35:50+02:00</time>
      </trkpt>
      <trkpt lat="49.0653" lon="1.8148">
        <ele>183</ele>
        <time>2019-06-16T12:36:09+02:00</time>
      </trkpt>
      <trkpt lat="49.06508" lon="1.8147">
        <ele>185</ele>
        <time>2019-06-16T12:36:28+02:00</time>
      </trkpt>
      <trkpt lat="49.06486" lon="1.81462">
        <ele>186</ele>
        <time>2019-06-16T12:36:48+02:00</time>
      </trkpt>
      <trkpt lat="49.06463" lon="1.81455">
        <ele>183</ele>
        <time>2019-06-16T12:37:04+02:00</time>
      </trkpt>
      <trkpt lat="49.0644" lon="1.8145">
        <ele>181</ele>
        <time>2019-06-16T12:37:19+02:00</time>
      </trkpt>
      <trkpt lat="49.06417" lon="1.81444">
        <ele>180</ele>
        <time>2019-06-16T12:37:36+02:00</time>
      </trkpt>
      <trkpt lat="49.06394" lon="1.81436">
        <ele>177</ele>
        <time>2019-06-16T12:37:56+02:00</time>
      </trkpt>
      <trkpt lat="49.06373" lon="1.81423">
        <ele>175</ele>
        <time>2019-06-16T12:38:19+02:00</time>
      </trkpt>
      <trkpt lat="49.06351" lon="1.81411">
        <ele>171</ele>
        <time>2019-06-16T12:38:44+02:00</time>
      </trkpt>
      <trkpt lat="49.06328" lon="1.81412">
        <ele>166</ele>
        <time>2019-06-16T12:39:56+02:00</time>
      </trkpt>
      <trkpt lat="49.06307" lon="1.81423">
        <ele>167</ele>
        <time>2019-06-16T12:40:30+02:00</time>
      </trkpt>
      <trkpt lat="49.06284" lon="1.81433">
        <ele>167</ele>
        <time>2019-06-16T12:40:49+02:00</time>
      </trkpt>
      <trkpt lat="49.06262" lon="1.81441">
        <ele>166</ele>
        <time>2019-06-16T12:41:08+02:00</time>
      </trkpt>
      <trkpt lat="49.0624" lon="1.81453">
        <ele>165</ele>
        <time>2019-06-16T12:41:24+02:00</time>
      </trkpt>
      <trkpt lat="49.06218" lon="1.81463">
        <ele>164</ele>
        <time>2019-06-16T12:41:42+02:00</time>
      </trkpt>
      <trkpt lat="49.06196" lon="1.81468">
        <ele>163</ele>
        <time>2019-06-16T12:41:58+02:00</time>
      </trkpt>
      <trkpt lat="49.06173" lon="1.81461">
        <ele>163</ele>
        <time>2019-06-16T12:42:18+02:00</time>
      </trkpt>
      <trkpt lat="49.0615" lon="1.81452">
        <ele>162</ele>
        <time>2019-06-16T12:42:38+02:00</time>
      </trkpt>
      <trkpt lat="49.06128" lon="1.81443">
        <ele>158</ele>
        <time>2019-06-16T12:42:56+02:00</time>
      </trkpt>
      <trkpt lat="49.06107" lon="1.81433">
        <ele>155</ele>
        <time>2019-06-16T12:43:16+02:00</time>
      </trkpt>
      <trkpt lat="49.06085" lon="1.81422">
        <ele>152</ele>
        <time>2019-06-16T12:43:37+02:00</time>
      </trkpt>
      <trkpt lat="49.06069" lon="1.81396">
        <ele>150</ele>
        <time>2019-06-16T12:43:58+02:00</time>
      </trkpt>
      <trkpt lat="49.06069" lon="1.81431">
        <ele>150</ele>
        <time>2019-06-16T12:44:37+02:00</time>
      </trkpt>
      <trkpt lat="49.06063" lon="1.81465">
        <ele>152</ele>
        <time>2019-06-16T12:45:01+02:00</time>
      </trkpt>
      <trkpt lat="49.06047" lon="1.81489">
        <ele>152</ele>
        <time>2019-06-16T12:45:50+02:00</time>
      </trkpt>
      <trkpt lat="49.06024" lon="1.81487">
        <ele>152</ele>
        <time>2019-06-16T12:46:13+02:00</time>
      </trkpt>
      <trkpt lat="49.06004" lon="1.81468">
        <ele>145</ele>
        <time>2019-06-16T13:24:52+02:00</time>
      </trkpt>
      <trkpt lat="49.06004" lon="1.81433">
        <ele>148</ele>
        <time>2019-06-16T13:28:34+02:00</time>
      </trkpt>
      <trkpt lat="49.05992" lon="1.81404">
        <ele>146</ele>
        <time>2019-06-16T13:29:18+02:00</time>
      </trkpt>
      <trkpt lat="49.0597" lon="1.81404">
        <ele>144</ele>
        <time>2019-06-16T13:29:39+02:00</time>
      </trkpt>
      <trkpt lat="49.05947" lon="1.81409">
        <ele>142</ele>
        <time>2019-06-16T13:29:59+02:00</time>
      </trkpt>
      <trkpt lat="49.05924" lon="1.81406">
        <ele>142</ele>
        <time>2019-06-16T13:30:21+02:00</time>
      </trkpt>
      <trkpt lat="49.0591" lon="1.81379">
        <ele>138</ele>
        <time>2019-06-16T13:30:49+02:00</time>
      </trkpt>
      <trkpt lat="49.05909" lon="1.81344">
        <ele>136</ele>
        <time>2019-06-16T13:31:15+02:00</time>
      </trkpt>
      <trkpt lat="49.05918" lon="1.81312">
        <ele>136</ele>
        <time>2019-06-16T13:31:39+02:00</time>
      </trkpt>
      <trkpt lat="49.05926" lon="1.8128">
        <ele>135</ele>
        <time>2019-06-16T13:31:59+02:00</time>
      </trkpt>
      <trkpt lat="49.05933" lon="1.81246">
        <ele>135</ele>
        <time>2019-06-16T13:32:19+02:00</time>
      </trkpt>
      <trkpt lat="49.0594" lon="1.81213">
        <ele>133</ele>
        <time>2019-06-16T13:32:40+02:00</time>
      </trkpt>
      <trkpt lat="49.05947" lon="1.81179">
        <ele>132</ele>
        <time>2019-06-16T13:33:00+02:00</time>
      </trkpt>
      <trkpt lat="49.05953" lon="1.81145">
        <ele>132</ele>
        <time>2019-06-16T13:33:20+02:00</time>
      </trkpt>
      <trkpt lat="49.05958" lon="1.81111">
        <ele>131</ele>
        <time>2019-06-16T13:33:40+02:00</time>
      </trkpt>
      <trkpt lat="49.05959" lon="1.81076">
        <ele>129</ele>
        <time>2019-06-16T13:34:00+02:00</time>
      </trkpt>
      <trkpt lat="49.05952" lon="1.81042">
        <ele>127</ele>
        <time>2019-06-16T13:34:54+02:00</time>
      </trkpt>
      <trkpt lat="49.05946" lon="1.81008">
        <ele>128</ele>
        <time>2019-06-16T13:35:17+02:00</time>
      </trkpt>
      <trkpt lat="49.05942" lon="1.80974">
        <ele>129</ele>
        <time>2019-06-16T13:35:38+02:00</time>
      </trkpt>
      <trkpt lat="49.05938" lon="1.80939">
        <ele>131</ele>
        <time>2019-06-16T13:35:59+02:00</time>
      </trkpt>
      <trkpt lat="49.05939" lon="1.80904">
        <ele>132</ele>
        <time>2019-06-16T13:36:20+02:00</time>
      </trkpt>
      <trkpt lat="49.05936" lon="1.8087">
        <ele>134</ele>
        <time>2019-06-16T13:36:41+02:00</time>
      </trkpt>
      <trkpt lat="49.0593" lon="1.80836">
        <ele>135</ele>
        <time>2019-06-16T13:36:59+02:00</time>
      </trkpt>
      <trkpt lat="49.05925" lon="1.80801">
        <ele>139</ele>
        <time>2019-06-16T13:37:23+02:00</time>
      </trkpt>
      <trkpt lat="49.05924" lon="1.80766">
        <ele>140</ele>
        <time>2019-06-16T13:37:44+02:00</time>
      </trkpt>
      <trkpt lat="49.05922" lon="1.80731">
        <ele>144</ele>
        <time>2019-06-16T13:38:11+02:00</time>
      </trkpt>
      <trkpt lat="49.05925" lon="1.80696">
        <ele>146</ele>
        <time>2019-06-16T13:38:30+02:00</time>
      </trkpt>
      <trkpt lat="49.05917" lon="1.80663">
        <ele>147</ele>
        <time>2019-06-16T13:38:48+02:00</time>
      </trkpt>
      <trkpt lat="49.05912" lon="1.80629">
        <ele>150</ele>
        <time>2019-06-16T13:39:50+02:00</time>
      </trkpt>
      <trkpt lat="49.05909" lon="1.80595">
        <ele>155</ele>
        <time>2019-06-16T13:40:18+02:00</time>
      </trkpt>
      <trkpt lat="49.05907" lon="1.80559">
        <ele>157</ele>
        <time>2019-06-16T13:40:44+02:00</time>
      </trkpt>
      <trkpt lat="49.05907" lon="1.80525">
        <ele>160</ele>
        <time>2019-06-16T13:41:02+02:00</time>
      </trkpt>
      <trkpt lat="49.05909" lon="1.8049">
        <ele>160</ele>
        <time>2019-06-16T13:41:23+02:00</time>
      </trkpt>
      <trkpt lat="49.0591" lon="1.80455">
        <ele>162</ele>
        <time>2019-06-16T13:41:44+02:00</time>
      </trkpt>
      <trkpt lat="49.05915" lon="1.80421">
        <ele>165</ele>
        <time>2019-06-16T13:42:05+02:00</time>
      </trkpt>
      <trkpt lat="49.05907" lon="1.80389">
        <ele>166</ele>
        <time>2019-06-16T13:45:39+02:00</time>
      </trkpt>
      <trkpt lat="49.05884" lon="1.80384">
        <ele>171</ele>
        <time>2019-06-16T13:46:01+02:00</time>
      </trkpt>
      <trkpt lat="49.05861" lon="1.80383">
        <ele>171</ele>
        <time>2019-06-16T13:46:22+02:00</time>
      </trkpt>
      <trkpt lat="49.05839" lon="1.80382">
        <ele>170</ele>
        <time>2019-06-16T13:46:44+02:00</time>
      </trkpt>
      <trkpt lat="49.05816" lon="1.80391">
        <ele>171</ele>
        <time>2019-06-16T13:47:05+02:00</time>
      </trkpt>
      <trkpt lat="49.05793" lon="1.804">
        <ele>171</ele>
        <time>2019-06-16T13:47:23+02:00</time>
      </trkpt>
      <trkpt lat="49.0577" lon="1.80407">
        <ele>172</ele>
        <time>2019-06-16T13:47:41+02:00</time>
      </trkpt>
      <trkpt lat="49.05749" lon="1.80421">
        <ele>172</ele>
        <time>2019-06-16T13:47:58+02:00</time>
      </trkpt>
      <trkpt lat="49.05727" lon="1.80427">
        <ele>174</ele>
        <time>2019-06-16T13:48:17+02:00</time>
      </trkpt>
      <trkpt lat="49.05703" lon="1.80434">
        <ele>174</ele>
        <time>2019-06-16T13:48:37+02:00</time>
      </trkpt>
      <trkpt lat="49.05681" lon="1.80444">
        <ele>176</ele>
        <time>2019-06-16T13:48:55+02:00</time>
      </trkpt>
      <trkpt lat="49.05658" lon="1.80447">
        <ele>175</ele>
        <time>2019-06-16T13:49:17+02:00</time>
      </trkpt>
      <trkpt lat="49.05637" lon="1.80457">
        <ele>174</ele>
        <time>2019-06-16T13:49:31+02:00</time>
      </trkpt>
      <trkpt lat="49.05614" lon="1.80462">
        <ele>175</ele>
        <time>2019-06-16T13:49:49+02:00</time>
      </trkpt>
      <trkpt lat="49.05593" lon="1.80476">
        <ele>173</ele>
        <time>2019-06-16T13:50:09+02:00</time>
      </trkpt>
      <trkpt lat="49.0557" lon="1.80482">
        <ele>172</ele>
        <time>2019-06-16T13:50:25+02:00</time>
      </trkpt>
      <trkpt lat="49.05549" lon="1.80493">
        <ele>170</ele>
        <time>2019-06-16T13:50:42+02:00</time>
      </trkpt>
      <trkpt lat="49.05527" lon="1.80503">
        <ele>167</ele>
        <time>2019-06-16T13:51:02+02:00</time>
      </trkpt>
      <trkpt lat="49.05506" lon="1.80512">
        <ele>165</ele>
        <time>2019-06-16T13:51:19+02:00</time>
      </trkpt>
      <trkpt lat="49.05484" lon="1.80524">
        <ele>162</ele>
        <time>2019-06-16T13:51:35+02:00</time>
      </trkpt>
      <trkpt lat="49.05461" lon="1.80531">
        <ele>161</ele>
        <time>2019-06-16T13:51:54+02:00</time>
      </trkpt>
      <trkpt lat="49.05439" lon="1.80538">
        <ele>160</ele>
        <time>2019-06-16T13:52:10+02:00</time>
      </trkpt>
      <trkpt lat="49.05415" lon="1.80535">
        <ele>159</ele>
        <time>2019-06-16T13:52:28+02:00</time>
      </trkpt>
      <trkpt lat="49.05393" lon="1.8054">
        <ele>159</ele>
        <time>2019-06-16T13:52:46+02:00</time>
      </trkpt>
      <trkpt lat="49.05375" lon="1.80518">
        <ele>157</ele>
        <time>2019-06-16T13:54:01+02:00</time>
      </trkpt>
      <trkpt lat="49.05357" lon="1.80497">
        <ele>156</ele>
        <time>2019-06-16T13:54:21+02:00</time>
      </trkpt>
      <trkpt lat="49.0534" lon="1.80475">
        <ele>157</ele>
        <time>2019-06-16T13:54:39+02:00</time>
      </trkpt>
      <trkpt lat="49.0532" lon="1.80457">
        <ele>156</ele>
        <time>2019-06-16T13:54:58+02:00</time>
      </trkpt>
      <trkpt lat="49.053" lon="1.80437">
        <ele>156</ele>
        <time>2019-06-16T13:55:17+02:00</time>
      </trkpt>
      <trkpt lat="49.05279" lon="1.80428">
        <ele>155</ele>
        <time>2019-06-16T13:55:33+02:00</time>
      </trkpt>
      <trkpt lat="49.05258" lon="1.80413">
        <ele>155</ele>
        <time>2019-06-16T13:55:51+02:00</time>
      </trkpt>
      <trkpt lat="49.05237" lon="1.80397">
        <ele>153</ele>
        <time>2019-06-16T13:56:09+02:00</time>
      </trkpt>
      <trkpt lat="49.05215" lon="1.80386">
        <ele>153</ele>
        <time>2019-06-16T13:56:27+02:00</time>
      </trkpt>
      <trkpt lat="49.05195" lon="1.80401">
        <ele>154</ele>
        <time>2019-06-16T13:56:54+02:00</time>
      </trkpt>
      <trkpt lat="49.05174" lon="1.80416">
        <ele>154</ele>
        <time>2019-06-16T13:57:19+02:00</time>
      </trkpt>
      <trkpt lat="49.05154" lon="1.80435">
        <ele>154</ele>
        <time>2019-06-16T13:57:37+02:00</time>
      </trkpt>
      <trkpt lat="49.05136" lon="1.80459">
        <ele>154</ele>
        <time>2019-06-16T13:57:56+02:00</time>
      </trkpt>
      <trkpt lat="49.05121" lon="1.80485">
        <ele>155</ele>
        <time>2019-06-16T13:58:14+02:00</time>
      </trkpt>
      <trkpt lat="49.05107" lon="1.80513">
        <ele>154</ele>
        <time>2019-06-16T13:58:34+02:00</time>
      </trkpt>
      <trkpt lat="49.05091" lon="1.80538">
        <ele>154</ele>
        <time>2019-06-16T13:58:52+02:00</time>
      </trkpt>
      <trkpt lat="49.05075" lon="1.80563">
        <ele>153</ele>
        <time>2019-06-16T13:59:09+02:00</time>
      </trkpt>
      <trkpt lat="49.0506" lon="1.80591">
        <ele>154</ele>
        <time>2019-06-16T13:59:27+02:00</time>
      </trkpt>
      <trkpt lat="49.05042" lon="1.80612">
        <ele>155</ele>
        <time>2019-06-16T13:59:45+02:00</time>
      </trkpt>
      <trkpt lat="49.05022" lon="1.80627">
        <ele>155</ele>
        <time>2019-06-16T14:01:05+02:00</time>
      </trkpt>
      <trkpt lat="49.05003" lon="1.80648">
        <ele>158</ele>
        <time>2019-06-16T14:01:29+02:00</time>
      </trkpt>
      <trkpt lat="49.04982" lon="1.80659">
        <ele>157</ele>
        <time>2019-06-16T14:01:55+02:00</time>
      </trkpt>
      <trkpt lat="49.0496" lon="1.80673">
        <ele>159</ele>
        <time>2019-06-16T14:02:21+02:00</time>
      </trkpt>
      <trkpt lat="49.04938" lon="1.80683">
        <ele>160</ele>
        <time>2019-06-16T14:02:51+02:00</time>
      </trkpt>
      <trkpt lat="49.04916" lon="1.80694">
        <ele>162</ele>
        <time>2019-06-16T14:03:16+02:00</time>
      </trkpt>
      <trkpt lat="49.04894" lon="1.80705">
        <ele>162</ele>
        <time>2019-06-16T14:03:40+02:00</time>
      </trkpt>
      <trkpt lat="49.04876" lon="1.80727">
        <ele>163</ele>
        <time>2019-06-16T14:04:07+02:00</time>
      </trkpt>
      <trkpt lat="49.04856" lon="1.80744">
        <ele>164</ele>
        <time>2019-06-16T14:04:31+02:00</time>
      </trkpt>
      <trkpt lat="49.0484" lon="1.80769">
        <ele>163</ele>
        <time>2019-06-16T14:04:53+02:00</time>
      </trkpt>
      <trkpt lat="49.04828" lon="1.80799">
        <ele>161</ele>
        <time>2019-06-16T14:05:24+02:00</time>
      </trkpt>
      <trkpt lat="49.04818" lon="1.8083">
        <ele>162</ele>
        <time>2019-06-16T14:06:16+02:00</time>
      </trkpt>
      <trkpt lat="49.04802" lon="1.80857">
        <ele>160</ele>
        <time>2019-06-16T14:06:35+02:00</time>
      </trkpt>
      <trkpt lat="49.04784" lon="1.80879">
        <ele>162</ele>
        <time>2019-06-16T14:06:54+02:00</time>
      </trkpt>
      <trkpt lat="49.0477" lon="1.80908">
        <ele>162</ele>
        <time>2019-06-16T14:07:12+02:00</time>
      </trkpt>
      <trkpt lat="49.04755" lon="1.80935">
        <ele>163</ele>
        <time>2019-06-16T14:07:31+02:00</time>
      </trkpt>
      <trkpt lat="49.0474" lon="1.80963">
        <ele>162</ele>
        <time>2019-06-16T14:07:50+02:00</time>
      </trkpt>
      <trkpt lat="49.04723" lon="1.80986">
        <ele>163</ele>
        <time>2019-06-16T14:08:08+02:00</time>
      </trkpt>
      <trkpt lat="49.04707" lon="1.81011">
        <ele>162</ele>
        <time>2019-06-16T14:08:28+02:00</time>
      </trkpt>
      <trkpt lat="49.04692" lon="1.81038">
        <ele>161</ele>
        <time>2019-06-16T14:08:47+02:00</time>
      </trkpt>
      <trkpt lat="49.0468" lon="1.81069">
        <ele>160</ele>
        <time>2019-06-16T14:09:05+02:00</time>
      </trkpt>
      <trkpt lat="49.04675" lon="1.81103">
        <ele>158</ele>
        <time>2019-06-16T14:09:24+02:00</time>
      </trkpt>
      <trkpt lat="49.04665" lon="1.81135">
        <ele>157</ele>
        <time>2019-06-16T14:09:43+02:00</time>
      </trkpt>
      <trkpt lat="49.04648" lon="1.81158">
        <ele>155</ele>
        <time>2019-06-16T14:10:01+02:00</time>
      </trkpt>
      <trkpt lat="49.0463" lon="1.8118">
        <ele>153</ele>
        <time>2019-06-16T14:10:21+02:00</time>
      </trkpt>
      <trkpt lat="49.04613" lon="1.81203">
        <ele>152</ele>
        <time>2019-06-16T14:10:42+02:00</time>
      </trkpt>
      <trkpt lat="49.04607" lon="1.81236">
        <ele>152</ele>
        <time>2019-06-16T14:11:18+02:00</time>
      </trkpt>
      <trkpt lat="49.04613" lon="1.81269">
        <ele>150</ele>
        <time>2019-06-16T14:11:56+02:00</time>
      </trkpt>
      <trkpt lat="49.04623" lon="1.813">
        <ele>150</ele>
        <time>2019-06-16T14:14:26+02:00</time>
      </trkpt>
      <trkpt lat="49.04612" lon="1.81331">
        <ele>147</ele>
        <time>2019-06-16T14:14:50+02:00</time>
      </trkpt>
      <trkpt lat="49.046" lon="1.8136">
        <ele>145</ele>
        <time>2019-06-16T14:15:09+02:00</time>
      </trkpt>
      <trkpt lat="49.04592" lon="1.81393">
        <ele>144</ele>
        <time>2019-06-16T14:15:29+02:00</time>
      </trkpt>
      <trkpt lat="49.0459" lon="1.81429">
        <ele>142</ele>
        <time>2019-06-16T14:15:48+02:00</time>
      </trkpt>
      <trkpt lat="49.04588" lon="1.81464">
        <ele>138</ele>
        <time>2019-06-16T14:16:08+02:00</time>
      </trkpt>
      <trkpt lat="49.04586" lon="1.81499">
        <ele>136</ele>
        <time>2019-06-16T14:16:29+02:00</time>
      </trkpt>
      <trkpt lat="49.04588" lon="1.81535">
        <ele>134</ele>
        <time>2019-06-16T14:16:48+02:00</time>
      </trkpt>
      <trkpt lat="49.04594" lon="1.81569">
        <ele>132</ele>
        <time>2019-06-16T14:17:07+02:00</time>
      </trkpt>
      <trkpt lat="49.04602" lon="1.81601">
        <ele>130</ele>
        <time>2019-06-16T14:17:25+02:00</time>
      </trkpt>
      <trkpt lat="49.04611" lon="1.81632">
        <ele>127</ele>
        <time>2019-06-16T14:19:15+02:00</time>
      </trkpt>
      <trkpt lat="49.04618" lon="1.81667">
        <ele>127</ele>
        <time>2019-06-16T14:20:04+02:00</time>
      </trkpt>
      <trkpt lat="49.04623" lon="1.81702">
        <ele>124</ele>
        <time>2019-06-16T14:20:22+02:00</time>
      </trkpt>
      <trkpt lat="49.04628" lon="1.81736">
        <ele>121</ele>
        <time>2019-06-16T14:20:40+02:00</time>
      </trkpt>
      <trkpt lat="49.04631" lon="1.81772">
        <ele>120</ele>
        <time>2019-06-16T14:21:01+02:00</time>
      </trkpt>
      <trkpt lat="49.04631" lon="1.81806">
        <ele>118</ele>
        <time>2019-06-16T14:21:20+02:00</time>
      </trkpt>
      <trkpt lat="49.04629" lon="1.81842">
        <ele>116</ele>
        <time>2019-06-16T14:21:39+02:00</time>
      </trkpt>
      <trkpt lat="49.04623" lon="1.81875">
        <ele>114</ele>
        <time>2019-06-16T14:21:58+02:00</time>
      </trkpt>
      <trkpt lat="49.04616" lon="1.8191">
        <ele>112</ele>
        <time>2019-06-16T14:22:17+02:00</time>
      </trkpt>
      <trkpt lat="49.0461" lon="1.81943">
        <ele>111</ele>
        <time>2019-06-16T14:22:35+02:00</time>
      </trkpt>
      <trkpt lat="49.04603" lon="1.81978">
        <ele>110</ele>
        <time>2019-06-16T14:22:53+02:00</time>
      </trkpt>
      <trkpt lat="49.04597" lon="1.82012">
        <ele>110</ele>
        <time>2019-06-16T14:23:11+02:00</time>
      </trkpt>
      <trkpt lat="49.04591" lon="1.82045">
        <ele>109</ele>
        <time>2019-06-16T14:23:28+02:00</time>
      </trkpt>
      <trkpt lat="49.04585" lon="1.82079">
        <ele>109</ele>
        <time>2019-06-16T14:23:46+02:00</time>
      </trkpt>
      <trkpt lat="49.0459" lon="1.82113">
        <ele>113</ele>
        <time>2019-06-16T14:26:24+02:00</time>
      </trkpt>
      <trkpt lat="49.04596" lon="1.82148">
        <ele>111</ele>
        <time>2019-06-16T14:26:43+02:00</time>
      </trkpt>
      <trkpt lat="49.04594" lon="1.82182">
        <ele>107</ele>
        <time>2019-06-16T14:27:01+02:00</time>
      </trkpt>
      <trkpt lat="49.04582" lon="1.82213">
        <ele>105</ele>
        <time>2019-06-16T14:27:19+02:00</time>
      </trkpt>
      <trkpt lat="49.04582" lon="1.82249">
        <ele>102</ele>
        <time>2019-06-16T14:27:38+02:00</time>
      </trkpt>
      <trkpt lat="49.04593" lon="1.8228">
        <ele>99</ele>
        <time>2019-06-16T14:27:56+02:00</time>
      </trkpt>
      <trkpt lat="49.04602" lon="1.82312">
        <ele>96</ele>
        <time>2019-06-16T14:28:15+02:00</time>
      </trkpt>
      <trkpt lat="49.04587" lon="1.82337">
        <ele>93</ele>
        <time>2019-06-16T14:29:50+02:00</time>
      </trkpt>
      <trkpt lat="49.04565" lon="1.82347">
        <ele>94</ele>
        <time>2019-06-16T14:30:08+02:00</time>
      </trkpt>
      <trkpt lat="49.04542" lon="1.82353">
        <ele>93</ele>
        <time>2019-06-16T14:30:26+02:00</time>
      </trkpt>
      <trkpt lat="49.0452" lon="1.82362">
        <ele>92</ele>
        <time>2019-06-16T14:30:45+02:00</time>
      </trkpt>
      <trkpt lat="49.04497" lon="1.8237">
        <ele>92</ele>
        <time>2019-06-16T14:31:02+02:00</time>
      </trkpt>
      <trkpt lat="49.04473" lon="1.82374">
        <ele>91</ele>
        <time>2019-06-16T14:31:20+02:00</time>
      </trkpt>
      <trkpt lat="49.0445" lon="1.82379">
        <ele>91</ele>
        <time>2019-06-16T14:31:38+02:00</time>
      </trkpt>
      <trkpt lat="49.04427" lon="1.82385">
        <ele>89</ele>
        <time>2019-06-16T14:31:57+02:00</time>
      </trkpt>
      <trkpt lat="49.04404" lon="1.82392">
        <ele>88</ele>
        <time>2019-06-16T14:32:22+02:00</time>
      </trkpt>
      <trkpt lat="49.04382" lon="1.82399">
        <ele>89</ele>
        <time>2019-06-16T14:32:39+02:00</time>
      </trkpt>
      <trkpt lat="49.04359" lon="1.82406">
        <ele>88</ele>
        <time>2019-06-16T14:32:57+02:00</time>
      </trkpt>
      <trkpt lat="49.04336" lon="1.82408">
        <ele>88</ele>
        <time>2019-06-16T14:33:15+02:00</time>
      </trkpt>
      <trkpt lat="49.04313" lon="1.82413">
        <ele>88</ele>
        <time>2019-06-16T14:33:31+02:00</time>
      </trkpt>
      <trkpt lat="49.04291" lon="1.82417">
        <ele>89</ele>
        <time>2019-06-16T14:33:49+02:00</time>
      </trkpt>
      <trkpt lat="49.04267" lon="1.82423">
        <ele>90</ele>
        <time>2019-06-16T14:34:07+02:00</time>
      </trkpt>
      <trkpt lat="49.04245" lon="1.82428">
        <ele>90</ele>
        <time>2019-06-16T14:34:24+02:00</time>
      </trkpt>
      <trkpt lat="49.04222" lon="1.82434">
        <ele>88</ele>
        <time>2019-06-16T14:34:44+02:00</time>
      </trkpt>
      <trkpt lat="49.04201" lon="1.82444">
        <ele>87</ele>
        <time>2019-06-16T14:35:01+02:00</time>
      </trkpt>
      <trkpt lat="49.04178" lon="1.8245">
        <ele>87</ele>
        <time>2019-06-16T14:35:19+02:00</time>
      </trkpt>
      <trkpt lat="49.04156" lon="1.8246">
        <ele>86</ele>
        <time>2019-06-16T14:35:38+02:00</time>
      </trkpt>
      <trkpt lat="49.04134" lon="1.82469">
        <ele>86</ele>
        <time>2019-06-16T14:35:55+02:00</time>
      </trkpt>
      <trkpt lat="49.04112" lon="1.82478">
        <ele>84</ele>
        <time>2019-06-16T14:36:13+02:00</time>
      </trkpt>
      <trkpt lat="49.04089" lon="1.82485">
        <ele>84</ele>
        <time>2019-06-16T14:36:32+02:00</time>
      </trkpt>
      <trkpt lat="49.04067" lon="1.82497">
        <ele>83</ele>
        <time>2019-06-16T14:36:51+02:00</time>
      </trkpt>
      <trkpt lat="49.04047" lon="1.82515">
        <ele>84</ele>
        <time>2019-06-16T14:37:07+02:00</time>
      </trkpt>
      <trkpt lat="49.04032" lon="1.82543">
        <ele>83</ele>
        <time>2019-06-16T14:37:25+02:00</time>
      </trkpt>
      <trkpt lat="49.04019" lon="1.82573">
        <ele>83</ele>
        <time>2019-06-16T14:37:43+02:00</time>
      </trkpt>
      <trkpt lat="49.0401" lon="1.82606">
        <ele>82</ele>
        <time>2019-06-16T14:38:01+02:00</time>
      </trkpt>
      <trkpt lat="49.04001" lon="1.82639">
        <ele>82</ele>
        <time>2019-06-16T14:38:19+02:00</time>
      </trkpt>
      <trkpt lat="49.03991" lon="1.82671">
        <ele>83</ele>
        <time>2019-06-16T14:38:37+02:00</time>
      </trkpt>
      <trkpt lat="49.03983" lon="1.82704">
        <ele>81</ele>
        <time>2019-06-16T14:38:55+02:00</time>
      </trkpt>
      <trkpt lat="49.03975" lon="1.82736">
        <ele>80</ele>
        <time>2019-06-16T14:39:11+02:00</time>
      </trkpt>
      <trkpt lat="49.03966" lon="1.8277">
        <ele>78</ele>
        <time>2019-06-16T14:39:29+02:00</time>
      </trkpt>
      <trkpt lat="49.03957" lon="1.82802">
        <ele>77</ele>
        <time>2019-06-16T14:39:47+02:00</time>
      </trkpt>
      <trkpt lat="49.03948" lon="1.82835">
        <ele>77</ele>
        <time>2019-06-16T14:40:05+02:00</time>
      </trkpt>
      <trkpt lat="49.03935" lon="1.82865">
        <ele>76</ele>
        <time>2019-06-16T14:40:22+02:00</time>
      </trkpt>
      <trkpt lat="49.03924" lon="1.82895">
        <ele>76</ele>
        <time>2019-06-16T14:40:39+02:00</time>
      </trkpt>
      <trkpt lat="49.03916" lon="1.82929">
        <ele>75</ele>
        <time>2019-06-16T14:40:57+02:00</time>
      </trkpt>
      <trkpt lat="49.03912" lon="1.82963">
        <ele>75</ele>
        <time>2019-06-16T14:41:15+02:00</time>
      </trkpt>
      <trkpt lat="49.0391" lon="1.82999">
        <ele>73</ele>
        <time>2019-06-16T14:41:36+02:00</time>
      </trkpt>
      <trkpt lat="49.03907" lon="1.83033">
        <ele>70</ele>
        <time>2019-06-16T14:45:59+02:00</time>
      </trkpt>
      <trkpt lat="49.03898" lon="1.83065">
        <ele>67</ele>
        <time>2019-06-16T14:46:34+02:00</time>
      </trkpt>
      <trkpt lat="49.03883" lon="1.83091">
        <ele>68</ele>
        <time>2019-06-16T14:46:59+02:00</time>
      </trkpt>
      <trkpt lat="49.03871" lon="1.8312">
        <ele>66</ele>
        <time>2019-06-16T14:47:21+02:00</time>
      </trkpt>
      <trkpt lat="49.03861" lon="1.83152">
        <ele>65</ele>
        <time>2019-06-16T14:47:39+02:00</time>
      </trkpt>
      <trkpt lat="49.03848" lon="1.83181">
        <ele>65</ele>
        <time>2019-06-16T14:47:59+02:00</time>
      </trkpt>
      <trkpt lat="49.03837" lon="1.83211">
        <ele>66</ele>
        <time>2019-06-16T14:48:17+02:00</time>
      </trkpt>
      <trkpt lat="49.03833" lon="1.83246">
        <ele>64</ele>
        <time>2019-06-16T14:48:34+02:00</time>
      </trkpt>
      <trkpt lat="49.03845" lon="1.83275">
        <ele>64</ele>
        <time>2019-06-16T14:48:53+02:00</time>
      </trkpt>
      <trkpt lat="49.03847" lon="1.83309">
        <ele>63</ele>
        <time>2019-06-16T14:49:15+02:00</time>
      </trkpt>
      <trkpt lat="49.03846" lon="1.83344">
        <ele>64</ele>
        <time>2019-06-16T14:49:35+02:00</time>
      </trkpt>
      <trkpt lat="49.03824" lon="1.8335">
        <ele>65</ele>
        <time>2019-06-16T14:50:26+02:00</time>
      </trkpt>
      <trkpt lat="49.03802" lon="1.83342">
        <ele>65</ele>
        <time>2019-06-16T14:50:41+02:00</time>
      </trkpt>
      <trkpt lat="49.03782" lon="1.83359">
        <ele>67</ele>
        <time>2019-06-16T14:51:09+02:00</time>
      </trkpt>
      <trkpt lat="49.03773" lon="1.83391">
        <ele>68</ele>
        <time>2019-06-16T14:51:49+02:00</time>
      </trkpt>
      <trkpt lat="49.03766" lon="1.83425">
        <ele>70</ele>
        <time>2019-06-16T14:52:10+02:00</time>
      </trkpt>
      <trkpt lat="49.03757" lon="1.83457">
        <ele>69</ele>
        <time>2019-06-16T14:52:28+02:00</time>
      </trkpt>
      <trkpt lat="49.0375" lon="1.83491">
        <ele>70</ele>
        <time>2019-06-16T14:52:47+02:00</time>
      </trkpt>
      <trkpt lat="49.03743" lon="1.83525">
        <ele>70</ele>
        <time>2019-06-16T14:53:03+02:00</time>
      </trkpt>
      <trkpt lat="49.03741" lon="1.8356">
        <ele>69</ele>
        <time>2019-06-16T14:53:20+02:00</time>
      </trkpt>
      <trkpt lat="49.03733" lon="1.83592">
        <ele>69</ele>
        <time>2019-06-16T14:53:38+02:00</time>
      </trkpt>
      <trkpt lat="49.03724" lon="1.83624">
        <ele>70</ele>
        <time>2019-06-16T14:53:56+02:00</time>
      </trkpt>
      <trkpt lat="49.03719" lon="1.83659">
        <ele>69</ele>
        <time>2019-06-16T14:54:15+02:00</time>
      </trkpt>
      <trkpt lat="49.03713" lon="1.83693">
        <ele>68</ele>
        <time>2019-06-16T14:54:36+02:00</time>
      </trkpt>
      <trkpt lat="49.03707" lon="1.83727">
        <ele>68</ele>
        <time>2019-06-16T14:54:54+02:00</time>
      </trkpt>
      <trkpt lat="49.03704" lon="1.83762">
        <ele>68</ele>
        <time>2019-06-16T14:55:11+02:00</time>
      </trkpt>
      <trkpt lat="49.03698" lon="1.83797">
        <ele>68</ele>
        <time>2019-06-16T14:55:30+02:00</time>
      </trkpt>
      <trkpt lat="49.03695" lon="1.83832">
        <ele>67</ele>
        <time>2019-06-16T14:55:48+02:00</time>
      </trkpt>
      <trkpt lat="49.03695" lon="1.83867">
        <ele>66</ele>
        <time>2019-06-16T14:56:05+02:00</time>
      </trkpt>
      <trkpt lat="49.03694" lon="1.83901">
        <ele>65</ele>
        <time>2019-06-16T14:56:21+02:00</time>
      </trkpt>
      <trkpt lat="49.03694" lon="1.83937">
        <ele>65</ele>
        <time>2019-06-16T14:56:40+02:00</time>
      </trkpt>
      <trkpt lat="49.03691" lon="1.83972">
        <ele>64</ele>
        <time>2019-06-16T14:56:58+02:00</time>
      </trkpt>
      <trkpt lat="49.03693" lon="1.84006">
        <ele>64</ele>
        <time>2019-06-16T14:57:14+02:00</time>
      </trkpt>
      <trkpt lat="49.03694" lon="1.84041">
        <ele>64</ele>
        <time>2019-06-16T14:57:32+02:00</time>
      </trkpt>
      <trkpt lat="49.03695" lon="1.84077">
        <ele>64</ele>
        <time>2019-06-16T14:57:54+02:00</time>
      </trkpt>
      <trkpt lat="49.03698" lon="1.84111">
        <ele>63</ele>
        <time>2019-06-16T14:58:24+02:00</time>
      </trkpt>
      <trkpt lat="49.03698" lon="1.84147">
        <ele>64</ele>
        <time>2019-06-16T14:58:59+02:00</time>
      </trkpt>
      <trkpt lat="49.03701" lon="1.84182">
        <ele>64</ele>
        <time>2019-06-16T14:59:19+02:00</time>
      </trkpt>
      <trkpt lat="49.03703" lon="1.84218">
        <ele>62</ele>
        <time>2019-06-16T14:59:39+02:00</time>
      </trkpt>
      <trkpt lat="49.03704" lon="1.84253">
        <ele>60</ele>
        <time>2019-06-16T15:00:00+02:00</time>
      </trkpt>
      <trkpt lat="49.03694" lon="1.84284">
        <ele>59</ele>
        <time>2019-06-16T15:00:32+02:00</time>
      </trkpt>
      <trkpt lat="49.03691" lon="1.84319">
        <ele>57</ele>
        <time>2019-06-16T15:00:52+02:00</time>
      </trkpt>
      <trkpt lat="49.03688" lon="1.84355">
        <ele>56</ele>
        <time>2019-06-16T15:01:10+02:00</time>
      </trkpt>
      <trkpt lat="49.03698" lon="1.84387">
        <ele>54</ele>
        <time>2019-06-16T15:01:27+02:00</time>
      </trkpt>
      <trkpt lat="49.03704" lon="1.8442">
        <ele>53</ele>
        <time>2019-06-16T15:01:55+02:00</time>
      </trkpt>
      <trkpt lat="49.03702" lon="1.84456">
        <ele>52</ele>
        <time>2019-06-16T15:02:14+02:00</time>
      </trkpt>
      <trkpt lat="49.03701" lon="1.84492">
        <ele>52</ele>
        <time>2019-06-16T15:02:31+02:00</time>
      </trkpt>
      <trkpt lat="49.0372" lon="1.84514">
        <ele>51</ele>
        <time>2019-06-16T15:02:50+02:00</time>
      </trkpt>
      <trkpt lat="49.03742" lon="1.84518">
        <ele>48</ele>
        <time>2019-06-16T15:03:09+02:00</time>
      </trkpt>
      <trkpt lat="49.03765" lon="1.84515">
        <ele>47</ele>
        <time>2019-06-16T15:03:41+02:00</time>
      </trkpt>
      <trkpt lat="49.03787" lon="1.84526">
        <ele>55</ele>
        <time>2019-06-16T15:05:35+02:00</time>
      </trkpt>
      <trkpt lat="49.03808" lon="1.84515">
        <ele>57</ele>
        <time>2019-06-16T15:05:56+02:00</time>
      </trkpt>
      <trkpt lat="49.03828" lon="1.845">
        <ele>60</ele>
        <time>2019-06-16T15:06:18+02:00</time>
      </trkpt>
      <trkpt lat="49.03848" lon="1.84482">
        <ele>62</ele>
        <time>2019-06-16T15:06:39+02:00</time>
      </trkpt>
      <trkpt lat="49.0387" lon="1.84478">
        <ele>64</ele>
        <time>2019-06-16T15:06:59+02:00</time>
      </trkpt>
      <trkpt lat="49.03889" lon="1.84499">
        <ele>67</ele>
        <time>2019-06-16T15:07:21+02:00</time>
      </trkpt>
      <trkpt lat="49.03901" lon="1.84528">
        <ele>68</ele>
        <time>2019-06-16T15:07:43+02:00</time>
      </trkpt>
      <trkpt lat="49.03911" lon="1.8456">
        <ele>69</ele>
        <time>2019-06-16T15:08:16+02:00</time>
      </trkpt>
      <trkpt lat="49.0392" lon="1.84594">
        <ele>74</ele>
        <time>2019-06-16T15:08:41+02:00</time>
      </trkpt>
      <trkpt lat="49.03929" lon="1.84626">
        <ele>80</ele>
        <time>2019-06-16T15:09:02+02:00</time>
      </trkpt>
      <trkpt lat="49.03944" lon="1.84654">
        <ele>85</ele>
        <time>2019-06-16T15:09:22+02:00</time>
      </trkpt>
      <trkpt lat="49.03962" lon="1.84676">
        <ele>90</ele>
        <time>2019-06-16T15:09:42+02:00</time>
      </trkpt>
      <trkpt lat="49.03981" lon="1.84697">
        <ele>93</ele>
        <time>2019-06-16T15:10:03+02:00</time>
      </trkpt>
      <trkpt lat="49.04001" lon="1.84712">
        <ele>96</ele>
        <time>2019-06-16T15:10:23+02:00</time>
      </trkpt>
      <trkpt lat="49.04024" lon="1.84721">
        <ele>100</ele>
        <time>2019-06-16T15:10:41+02:00</time>
      </trkpt>
      <trkpt lat="49.04046" lon="1.8473">
        <ele>101</ele>
        <time>2019-06-16T15:10:59+02:00</time>
      </trkpt>
      <trkpt lat="49.04068" lon="1.84727">
        <ele>104</ele>
        <time>2019-06-16T15:11:16+02:00</time>
      </trkpt>
      <trkpt lat="49.04082" lon="1.847">
        <ele>105</ele>
        <time>2019-06-16T15:12:03+02:00</time>
      </trkpt>
      <trkpt lat="49.04104" lon="1.84706">
        <ele>105</ele>
        <time>2019-06-16T15:12:21+02:00</time>
      </trkpt>
      <trkpt lat="49.04126" lon="1.84719">
        <ele>107</ele>
        <time>2019-06-16T15:12:40+02:00</time>
      </trkpt>
      <trkpt lat="49.04147" lon="1.8473">
        <ele>108</ele>
        <time>2019-06-16T15:12:59+02:00</time>
      </trkpt>
      <trkpt lat="49.04168" lon="1.84745">
        <ele>111</ele>
        <time>2019-06-16T15:13:18+02:00</time>
      </trkpt>
      <trkpt lat="49.04189" lon="1.8476">
        <ele>113</ele>
        <time>2019-06-16T15:13:39+02:00</time>
      </trkpt>
      <trkpt lat="49.04211" lon="1.84772">
        <ele>112</ele>
        <time>2019-06-16T15:14:01+02:00</time>
      </trkpt>
      <trkpt lat="49.04233" lon="1.8478">
        <ele>114</ele>
        <time>2019-06-16T15:14:23+02:00</time>
      </trkpt>
      <trkpt lat="49.04256" lon="1.84788">
        <ele>117</ele>
        <time>2019-06-16T15:14:46+02:00</time>
      </trkpt>
      <trkpt lat="49.04279" lon="1.84794">
        <ele>120</ele>
        <time>2019-06-16T15:15:06+02:00</time>
      </trkpt>
      <trkpt lat="49.04303" lon="1.84795">
        <ele>121</ele>
        <time>2019-06-16T15:15:26+02:00</time>
      </trkpt>
      <trkpt lat="49.04326" lon="1.84799">
        <ele>122</ele>
        <time>2019-06-16T15:15:47+02:00</time>
      </trkpt>
      <trkpt lat="49.04346" lon="1.84813">
        <ele>122</ele>
        <time>2019-06-16T15:16:05+02:00</time>
      </trkpt>
      <trkpt lat="49.04369" lon="1.8482">
        <ele>124</ele>
        <time>2019-06-16T15:16:25+02:00</time>
      </trkpt>
      <trkpt lat="49.04392" lon="1.84826">
        <ele>125</ele>
        <time>2019-06-16T15:16:45+02:00</time>
      </trkpt>
      <trkpt lat="49.04414" lon="1.84834">
        <ele>125</ele>
        <time>2019-06-16T15:17:06+02:00</time>
      </trkpt>
      <trkpt lat="49.04436" lon="1.84843">
        <ele>126</ele>
        <time>2019-06-16T15:17:27+02:00</time>
      </trkpt>
      <trkpt lat="49.04452" lon="1.84868">
        <ele>126</ele>
        <time>2019-06-16T15:17:47+02:00</time>
      </trkpt>
      <trkpt lat="49.04462" lon="1.849">
        <ele>125</ele>
        <time>2019-06-16T15:18:07+02:00</time>
      </trkpt>
      <trkpt lat="49.04472" lon="1.84932">
        <ele>126</ele>
        <time>2019-06-16T15:18:25+02:00</time>
      </trkpt>
      <trkpt lat="49.04482" lon="1.84962">
        <ele>126</ele>
        <time>2019-06-16T15:18:43+02:00</time>
      </trkpt>
      <trkpt lat="49.04493" lon="1.84993">
        <ele>126</ele>
        <time>2019-06-16T15:19:04+02:00</time>
      </trkpt>
      <trkpt lat="49.04502" lon="1.85026">
        <ele>126</ele>
        <time>2019-06-16T15:19:23+02:00</time>
      </trkpt>
      <trkpt lat="49.04517" lon="1.85055">
        <ele>128</ele>
        <time>2019-06-16T15:19:41+02:00</time>
      </trkpt>
      <trkpt lat="49.04539" lon="1.85057">
        <ele>127</ele>
        <time>2019-06-16T15:20:01+02:00</time>
      </trkpt>
      <trkpt lat="49.04561" lon="1.85047">
        <ele>126</ele>
        <time>2019-06-16T15:20:20+02:00</time>
      </trkpt>
      <trkpt lat="49.04583" lon="1.85037">
        <ele>126</ele>
        <time>2019-06-16T15:20:39+02:00</time>
      </trkpt>
      <trkpt lat="49.04605" lon="1.85026">
        <ele>126</ele>
        <time>2019-06-16T15:20:58+02:00</time>
      </trkpt>
      <trkpt lat="49.04619" lon="1.85053">
        <ele>126</ele>
        <time>2019-06-16T15:21:22+02:00</time>
      </trkpt>
      <trkpt lat="49.04623" lon="1.85089">
        <ele>127</ele>
        <time>2019-06-16T15:21:41+02:00</time>
      </trkpt>
      <trkpt lat="49.04626" lon="1.85124">
        <ele>128</ele>
        <time>2019-06-16T15:22:01+02:00</time>
      </trkpt>
      <trkpt lat="49.04631" lon="1.85158">
        <ele>126</ele>
        <time>2019-06-16T15:22:23+02:00</time>
      </trkpt>
    </trkseg>
  </trk>
</gpx>